createdAt,value
2023-08-16T04:15:29.660Z,0.00
2023-08-16T04:16:29.674Z,0.00
2023-08-16T04:17:29.692Z,0.00
2023-08-16T04:18:29.611Z,0.00
2023-08-16T04:19:29.617Z,0.00
2023-08-16T04:20:29.592Z,0.00
2023-08-16T04:21:29.639Z,0.00
2023-08-16T04:22:29.564Z,0.00
2023-08-16T04:23:29.562Z,0.00
2023-08-16T04:24:29.542Z,0.00
2023-08-16T04:25:29.520Z,0.00
2023-08-16T04:26:29.504Z,0.00
2023-08-16T04:27:29.491Z,5.62
2023-08-16T04:28:29.498Z,5.62
2023-08-16T04:29:29.474Z,5.62
2023-08-16T04:30:29.456Z,5.62
2023-08-16T04:31:29.444Z,5.62
2023-08-16T04:32:29.460Z,5.62
2023-08-16T04:33:29.742Z,5.62
2023-08-16T04:34:29.462Z,5.62
2023-08-16T04:35:29.388Z,5.62
2023-08-16T04:36:29.419Z,5.62
2023-08-16T04:37:29.373Z,5.62
2023-08-16T04:38:29.363Z,11.25
2023-08-16T04:39:29.340Z,11.25
2023-08-16T04:40:29.320Z,11.25
2023-08-16T04:41:29.319Z,11.25
2023-08-16T04:42:29.308Z,11.25
2023-08-16T04:43:29.295Z,16.88
2023-08-16T04:44:29.271Z,16.88
2023-08-16T04:45:29.257Z,16.88
2023-08-16T04:46:29.323Z,16.88
2023-08-16T04:47:29.308Z,22.50
2023-08-16T04:48:29.268Z,22.50
2023-08-16T04:49:29.212Z,22.50
2023-08-16T04:50:29.187Z,22.50
2023-08-16T04:51:29.183Z,22.50
2023-08-16T04:52:29.273Z,28.12
2023-08-16T04:53:29.164Z,28.12
2023-08-16T04:54:29.163Z,28.12
2023-08-16T04:55:29.115Z,28.12
2023-08-16T04:56:29.140Z,28.12
2023-08-16T04:57:29.374Z,33.75
2023-08-16T04:58:29.122Z,33.75
2023-08-16T04:59:29.134Z,33.75
2023-08-16T05:00:29.092Z,39.38
2023-08-16T05:01:29.116Z,39.38
2023-08-16T05:02:29.080Z,45.00
2023-08-16T05:03:29.018Z,50.62
2023-08-16T05:04:29.027Z,50.62
2023-08-16T05:05:29.108Z,50.62
2023-08-16T05:06:29.002Z,50.62
2023-08-16T05:07:28.964Z,50.62
2023-08-16T05:08:28.962Z,50.62
2023-08-16T05:09:28.937Z,50.62
2023-08-16T05:10:28.947Z,50.62
2023-08-16T05:11:28.912Z,50.62
2023-08-16T05:12:28.893Z,50.62
2023-08-16T05:13:28.883Z,50.62
2023-08-16T05:14:28.873Z,50.62
2023-08-16T05:15:28.877Z,45.00
2023-08-16T05:16:28.883Z,45.00
2023-08-16T05:17:28.833Z,39.38
2023-08-16T05:18:28.825Z,39.38
2023-08-16T05:19:28.828Z,33.75
2023-08-16T05:20:28.837Z,28.12
2023-08-16T05:21:28.774Z,28.12
2023-08-16T05:22:28.774Z,28.12
2023-08-16T05:23:28.746Z,22.50
2023-08-16T05:24:28.756Z,22.50
2023-08-16T05:25:28.725Z,16.88
2023-08-16T05:26:28.711Z,16.88
2023-08-16T05:27:28.695Z,16.88
2023-08-16T05:28:28.691Z,11.25
2023-08-16T05:29:29.803Z,11.25
2023-08-16T05:30:28.667Z,11.25
2023-08-16T05:31:28.636Z,11.25
2023-08-16T05:32:28.717Z,11.25
2023-08-16T05:33:28.682Z,11.25
2023-08-16T05:34:28.618Z,5.62
2023-08-16T05:35:28.586Z,5.62
2023-08-16T05:36:28.577Z,5.62
2023-08-16T05:37:28.566Z,5.62
2023-08-16T05:38:28.581Z,5.62
2023-08-16T05:39:28.550Z,5.62
2023-08-16T05:40:28.528Z,0.00
2023-08-16T05:41:28.506Z,5.62
2023-08-16T05:42:28.497Z,5.62
2023-08-16T05:43:28.498Z,5.62
2023-08-16T05:44:28.486Z,5.62
2023-08-16T05:45:28.507Z,11.25
2023-08-16T05:46:28.492Z,11.25
2023-08-16T05:47:28.514Z,11.25
2023-08-16T05:48:28.454Z,11.25
2023-08-16T05:49:28.404Z,11.25
2023-08-16T05:50:28.393Z,11.25
2023-08-16T05:51:28.375Z,11.25
2023-08-16T05:52:28.368Z,11.25
2023-08-16T05:53:28.376Z,11.25
2023-08-16T05:54:28.347Z,11.25
2023-08-16T05:55:28.325Z,11.25
2023-08-16T05:56:28.319Z,11.25
2023-08-16T05:57:28.300Z,11.25
2023-08-16T05:58:28.301Z,11.25
2023-08-16T05:59:28.276Z,11.25
2023-08-16T06:00:28.286Z,11.25
2023-08-16T06:01:28.283Z,16.88
2023-08-16T06:02:28.288Z,16.88
2023-08-16T06:03:28.278Z,16.88
2023-08-16T06:04:28.215Z,16.88
2023-08-16T06:05:28.196Z,16.88
2023-08-16T06:06:28.184Z,16.88
2023-08-16T06:07:28.176Z,16.88
2023-08-16T06:08:28.154Z,16.88
2023-08-16T06:09:28.140Z,16.88
2023-08-16T06:10:28.139Z,16.88
2023-08-16T06:11:28.115Z,16.88
2023-08-16T06:12:28.140Z,16.88
2023-08-16T06:13:28.103Z,11.25
2023-08-16T06:14:28.091Z,11.25
2023-08-16T06:15:28.063Z,11.25
2023-08-16T06:16:28.141Z,11.25
2023-08-16T06:17:28.313Z,11.25
2023-08-16T06:18:28.025Z,11.25
2023-08-16T06:19:28.006Z,16.88
2023-08-16T06:20:28.012Z,22.50
2023-08-16T06:21:27.992Z,22.50
2023-08-16T06:22:27.979Z,28.12
2023-08-16T06:23:27.955Z,28.12
2023-08-16T06:24:27.949Z,28.12
2023-08-16T06:25:27.932Z,28.12
2023-08-16T06:26:27.926Z,28.12
2023-08-16T06:27:27.907Z,22.50
2023-08-16T06:28:27.891Z,22.50
2023-08-16T06:29:27.878Z,22.50
2023-08-16T06:30:27.883Z,22.50
2023-08-16T06:31:27.872Z,22.50
2023-08-16T06:32:27.840Z,16.88
2023-08-16T06:33:27.821Z,16.88
2023-08-16T06:34:27.808Z,16.88
2023-08-16T06:35:27.804Z,16.88
2023-08-16T06:36:27.782Z,16.88
2023-08-16T06:37:27.773Z,16.88
2023-08-16T06:38:27.772Z,16.88
2023-08-16T06:39:27.746Z,16.88
2023-08-16T06:40:27.855Z,16.88
2023-08-16T06:41:27.719Z,16.88
2023-08-16T06:42:27.707Z,11.25
2023-08-16T06:43:27.687Z,11.25
2023-08-16T06:44:27.689Z,11.25
2023-08-16T06:45:27.675Z,11.25
2023-08-16T06:46:27.718Z,11.25
2023-08-16T06:47:28.094Z,16.88
2023-08-16T06:48:27.625Z,16.88
2023-08-16T06:49:27.646Z,16.88
2023-08-16T06:50:27.602Z,16.88
2023-08-16T06:51:27.580Z,16.88
2023-08-16T06:52:27.573Z,16.88
2023-08-16T06:53:27.556Z,16.88
2023-08-16T06:54:27.581Z,16.88
2023-08-16T06:55:27.525Z,11.25
2023-08-16T06:56:27.521Z,11.25
2023-08-16T06:57:27.504Z,11.25
2023-08-16T06:58:27.503Z,11.25
2023-08-16T06:59:27.483Z,11.25
2023-08-16T07:00:27.465Z,16.88
2023-08-16T07:01:27.488Z,16.88
2023-08-16T07:02:30.656Z,22.50
2023-08-16T07:03:27.506Z,22.50
2023-08-16T07:04:27.413Z,22.50
2023-08-16T07:05:27.399Z,22.50
2023-08-16T07:06:27.389Z,22.50
2023-08-16T07:07:27.389Z,22.50
2023-08-16T07:08:27.411Z,22.50
2023-08-16T07:09:27.346Z,22.50
2023-08-16T07:10:27.341Z,16.88
2023-08-16T07:11:27.324Z,16.88
2023-08-16T07:12:27.622Z,16.88
2023-08-16T07:13:27.309Z,16.88
2023-08-16T07:14:27.279Z,16.88
2023-08-16T07:15:27.272Z,11.25
2023-08-16T07:16:27.304Z,11.25
2023-08-16T07:17:27.363Z,11.25
2023-08-16T07:18:27.234Z,11.25
2023-08-16T07:19:27.219Z,16.88
2023-08-16T07:20:27.204Z,16.88
2023-08-16T07:21:27.195Z,22.50
2023-08-16T07:22:27.405Z,22.50
2023-08-16T07:23:27.172Z,28.12
2023-08-16T07:24:27.149Z,28.12
2023-08-16T07:25:27.146Z,28.12
2023-08-16T07:26:27.118Z,28.12
2023-08-16T07:27:27.172Z,33.75
2023-08-16T07:28:27.094Z,33.75
2023-08-16T07:29:27.081Z,39.38
2023-08-16T07:30:27.068Z,39.38
2023-08-16T07:31:27.085Z,45.00
2023-08-16T07:32:27.136Z,45.00
2023-08-16T07:33:27.039Z,50.62
2023-08-16T07:34:27.016Z,50.62
2023-08-16T07:35:27.016Z,50.62
2023-08-16T07:36:27.006Z,50.62
2023-08-16T07:37:26.994Z,56.25
2023-08-16T07:38:26.985Z,56.25
2023-08-16T07:39:26.951Z,61.88
2023-08-16T07:40:26.940Z,67.50
2023-08-16T07:41:26.939Z,73.12
2023-08-16T07:42:27.042Z,78.75
2023-08-16T07:43:26.897Z,84.38
2023-08-16T07:44:26.882Z,84.38
2023-08-16T07:45:26.886Z,90.00
2023-08-16T07:46:26.901Z,95.62
2023-08-16T07:47:26.846Z,95.62
2023-08-16T07:48:26.824Z,101.25
2023-08-16T07:49:26.830Z,101.25
2023-08-16T07:50:26.810Z,106.88
2023-08-16T07:51:26.791Z,112.50
2023-08-16T07:52:27.039Z,112.50
2023-08-16T07:53:26.818Z,118.12
2023-08-16T07:54:26.744Z,123.75
2023-08-16T07:55:26.750Z,123.75
2023-08-16T07:56:26.724Z,123.75
2023-08-16T07:57:26.713Z,123.75
2023-08-16T07:58:26.696Z,123.75
2023-08-16T07:59:26.694Z,123.75
2023-08-16T08:00:26.679Z,118.12
2023-08-16T08:01:26.668Z,118.12
2023-08-16T08:02:31.789Z,112.50
2023-08-16T08:03:27.697Z,106.88
2023-08-16T08:04:26.652Z,118.12
2023-08-16T08:05:26.656Z,118.12
2023-08-16T08:06:26.585Z,123.75
2023-08-16T08:07:26.578Z,135.00
2023-08-16T08:08:26.566Z,129.38
2023-08-16T08:09:26.603Z,129.38
2023-08-16T08:10:26.557Z,123.75
2023-08-16T08:11:26.524Z,123.75
2023-08-16T08:12:26.793Z,140.62
2023-08-16T08:13:26.604Z,146.25
2023-08-16T08:14:26.515Z,157.50
2023-08-16T08:15:26.508Z,163.12
2023-08-16T08:16:26.472Z,163.12
2023-08-16T08:17:26.450Z,157.50
2023-08-16T08:18:26.442Z,157.50
2023-08-16T08:19:26.429Z,151.88
2023-08-16T08:20:26.407Z,151.88
2023-08-16T08:21:26.398Z,146.25
2023-08-16T08:22:26.773Z,146.25
2023-08-16T08:23:26.383Z,140.62
2023-08-16T08:24:26.375Z,135.00
2023-08-16T08:25:26.421Z,129.38
2023-08-16T08:26:26.331Z,123.75
2023-08-16T08:27:26.342Z,118.12
2023-08-16T08:28:26.311Z,112.50
2023-08-16T08:29:28.004Z,101.25
2023-08-16T08:30:26.275Z,95.62
2023-08-16T08:31:26.308Z,90.00
2023-08-16T08:32:26.497Z,84.38
2023-08-16T08:33:26.234Z,84.38
2023-08-16T08:34:26.224Z,84.38
2023-08-16T08:35:26.551Z,90.00
2023-08-16T08:36:26.232Z,90.00
2023-08-16T08:37:26.193Z,90.00
2023-08-16T08:38:26.174Z,84.38
2023-08-16T08:39:26.198Z,84.38
2023-08-16T08:40:26.151Z,84.38
2023-08-16T08:41:37.751Z,84.38
2023-08-16T08:42:27.366Z,78.75
2023-08-16T08:43:26.104Z,73.12
2023-08-16T08:44:26.095Z,73.12
2023-08-16T08:45:26.273Z,67.50
2023-08-16T08:46:26.084Z,61.88
2023-08-16T08:47:26.084Z,61.88
2023-08-16T08:48:26.038Z,61.88
2023-08-16T08:49:26.026Z,61.88
2023-08-16T08:50:26.023Z,61.88
2023-08-16T08:51:26.006Z,61.88
2023-08-16T08:52:26.307Z,61.88
2023-08-16T08:53:25.971Z,61.88
2023-08-16T08:54:25.965Z,61.88
2023-08-16T08:55:25.992Z,61.88
2023-08-16T08:56:27.155Z,61.88
2023-08-16T08:57:25.918Z,61.88
2023-08-16T08:58:25.910Z,67.50
2023-08-16T08:59:25.893Z,78.75
2023-08-16T09:00:25.906Z,78.75
2023-08-16T09:01:25.918Z,84.38
2023-08-16T09:02:26.396Z,84.38
2023-08-16T09:03:25.912Z,84.38
2023-08-16T09:04:25.828Z,73.12
2023-08-16T09:05:25.823Z,73.12
2023-08-16T09:06:25.815Z,67.50
2023-08-16T09:07:25.791Z,67.50
2023-08-16T09:08:25.785Z,67.50
2023-08-16T09:09:25.775Z,73.12
2023-08-16T09:10:25.765Z,73.12
2023-08-16T09:11:25.737Z,78.75
2023-08-16T09:12:26.021Z,78.75
2023-08-16T09:13:25.709Z,78.75
2023-08-16T09:14:25.719Z,78.75
2023-08-16T09:15:25.680Z,78.75
2023-08-16T09:16:25.712Z,78.75
2023-08-16T09:17:25.719Z,78.75
2023-08-16T09:18:25.769Z,78.75
2023-08-16T09:19:25.657Z,84.38
2023-08-16T09:20:25.619Z,84.38
2023-08-16T09:21:25.619Z,90.00
2023-08-16T09:22:25.932Z,90.00
2023-08-16T09:23:25.647Z,95.62
2023-08-16T09:24:25.589Z,95.62
2023-08-16T09:25:25.553Z,95.62
2023-08-16T09:26:25.537Z,95.62
2023-08-16T09:27:25.546Z,95.62
2023-08-16T09:28:25.531Z,95.62
2023-08-16T09:29:25.519Z,101.25
2023-08-16T09:30:25.495Z,101.25
2023-08-16T09:31:25.517Z,106.88
2023-08-16T09:32:26.715Z,106.88
2023-08-16T09:33:25.498Z,106.88
2023-08-16T09:35:25.410Z,123.75
2023-08-16T09:36:25.406Z,129.38
2023-08-16T09:37:25.834Z,135.00
2023-08-16T09:39:25.395Z,146.25
2023-08-16T09:40:25.356Z,157.50
2023-08-16T09:41:25.341Z,163.12
2023-08-16T09:42:25.558Z,180.00
2023-08-16T09:43:25.330Z,213.75
2023-08-16T09:44:25.299Z,230.62
2023-08-16T09:45:25.318Z,253.12
2023-08-16T09:46:25.324Z,275.62
2023-08-16T09:47:40.563Z,286.88
2023-08-16T09:48:26.415Z,309.38
2023-08-16T09:49:25.272Z,331.88
2023-08-16T09:50:25.226Z,365.62
2023-08-16T09:52:13.478Z,388.12
2023-08-16T09:52:26.258Z,393.75
2023-08-16T09:54:25.210Z,405.00
2023-08-16T09:55:25.150Z,410.62
2023-08-16T09:58:25.111Z,444.38
2023-08-16T10:00:25.090Z,427.50
2023-08-16T10:03:25.096Z,264.38
2023-08-16T10:05:27.802Z,225.00
2023-08-16T10:06:38.185Z,219.38
2023-08-16T10:07:25.999Z,213.75
2023-08-16T10:08:24.997Z,208.12
2023-08-16T10:09:24.965Z,208.12
2023-08-16T10:10:24.961Z,196.88
2023-08-16T10:11:24.993Z,180.00
2023-08-16T10:12:25.129Z,185.62
2023-08-16T10:13:24.915Z,180.00
2023-08-16T10:14:24.907Z,191.25
2023-08-16T10:15:24.927Z,191.25
2023-08-16T10:16:24.939Z,196.88
2023-08-16T10:17:24.867Z,196.88
2023-08-16T10:18:24.846Z,174.38
2023-08-16T10:19:24.941Z,191.25
2023-08-16T10:20:24.862Z,191.25
2023-08-16T10:21:24.823Z,196.88
2023-08-16T10:23:24.796Z,253.12
2023-08-16T10:25:25.625Z,315.00
2023-08-16T10:26:24.773Z,343.12
2023-08-16T10:27:24.740Z,376.88
2023-08-16T10:28:31.848Z,371.25
2023-08-16T10:29:24.736Z,388.12
2023-08-16T10:30:24.741Z,416.25
2023-08-16T10:31:24.740Z,382.50
2023-08-16T10:32:24.899Z,315.00
2023-08-16T10:33:24.658Z,298.12
2023-08-16T10:34:24.653Z,292.50
2023-08-16T10:35:24.632Z,298.12
2023-08-16T10:36:24.615Z,320.62
2023-08-16T10:37:25.935Z,331.88
2023-08-16T10:38:24.593Z,376.88
2023-08-16T10:39:24.605Z,433.12
2023-08-16T10:40:26.662Z,388.12
2023-08-16T10:41:24.593Z,309.38
2023-08-16T10:42:24.930Z,258.75
2023-08-16T10:43:24.542Z,219.38
2023-08-16T10:44:24.588Z,196.88
2023-08-16T10:45:24.518Z,191.25
2023-08-16T10:46:24.515Z,174.38
2023-08-16T10:47:24.688Z,163.12
2023-08-16T10:48:24.473Z,163.12
2023-08-16T10:49:24.450Z,163.12
2023-08-16T10:50:24.425Z,151.88
2023-08-16T10:51:24.422Z,140.62
2023-08-16T10:52:24.404Z,163.12
2023-08-16T10:53:24.474Z,174.38
2023-08-16T10:54:24.371Z,168.75
2023-08-16T10:55:24.372Z,174.38
2023-08-16T10:56:24.352Z,163.12
2023-08-16T10:57:24.529Z,168.75
2023-08-16T10:58:24.340Z,168.75
2023-08-16T10:59:24.316Z,168.75
2023-08-16T11:00:24.292Z,191.25
2023-08-16T11:01:24.362Z,213.75
2023-08-16T11:02:24.373Z,241.88
2023-08-16T11:03:24.294Z,253.12
2023-08-16T11:04:24.245Z,270.00
2023-08-16T11:05:24.300Z,275.62
2023-08-16T11:06:24.214Z,270.00
2023-08-16T11:07:24.435Z,270.00
2023-08-16T11:08:24.200Z,270.00
2023-08-16T11:09:24.188Z,275.62
2023-08-16T11:10:24.165Z,281.25
2023-08-16T11:11:24.163Z,292.50
2023-08-16T11:12:24.147Z,298.12
2023-08-16T11:13:24.138Z,303.75
2023-08-16T11:14:24.114Z,303.75
2023-08-16T11:15:24.137Z,298.12
2023-08-16T11:16:24.129Z,286.88
2023-08-16T11:17:24.518Z,258.75
2023-08-16T11:18:28.701Z,281.25
2023-08-16T11:19:25.164Z,292.50
2023-08-16T11:20:24.196Z,292.50
2023-08-16T11:21:24.044Z,320.62
2023-08-16T11:22:24.164Z,337.50
2023-08-16T11:23:23.994Z,337.50
2023-08-16T11:24:23.976Z,343.12
2023-08-16T11:25:23.982Z,410.62
2023-08-16T11:26:23.984Z,444.38
2023-08-16T11:27:24.049Z,489.38
2023-08-16T11:28:23.924Z,506.25
2023-08-16T11:29:23.941Z,483.75
2023-08-16T11:30:23.907Z,483.75
2023-08-16T11:31:23.916Z,500.62
2023-08-16T11:32:24.035Z,500.62
2023-08-16T11:33:26.027Z,472.50
2023-08-16T11:34:23.851Z,478.12
2023-08-16T11:35:23.853Z,466.88
2023-08-16T11:36:23.864Z,472.50
2023-08-16T11:37:23.823Z,444.38
2023-08-16T11:38:23.822Z,427.50
2023-08-16T11:39:23.815Z,388.12
2023-08-16T11:40:23.945Z,360.00
2023-08-16T11:41:23.781Z,337.50
2023-08-16T11:42:23.874Z,326.25
2023-08-16T11:43:23.759Z,303.75
2023-08-16T11:44:23.713Z,292.50
2023-08-16T11:45:23.759Z,286.88
2023-08-16T11:46:23.700Z,286.88
2023-08-16T11:47:23.873Z,275.62
2023-08-16T11:48:23.668Z,253.12
2023-08-16T11:49:23.721Z,241.88
2023-08-16T11:50:23.644Z,241.88
2023-08-16T11:51:23.628Z,253.12
2023-08-16T11:52:23.609Z,275.62
2023-08-16T11:53:23.602Z,286.88
2023-08-16T11:54:23.617Z,309.38
2023-08-16T11:55:23.590Z,326.25
2023-08-16T11:56:23.565Z,343.12
2023-08-16T11:57:23.791Z,371.25
2023-08-16T11:58:23.528Z,416.25
2023-08-16T11:59:23.537Z,478.12
2023-08-16T12:00:23.512Z,511.88
2023-08-16T12:01:23.554Z,523.12
2023-08-16T12:02:23.478Z,556.88
2023-08-16T12:03:23.587Z,562.50
2023-08-16T12:04:23.545Z,590.62
2023-08-16T12:05:23.442Z,585.00
2023-08-16T12:06:23.419Z,573.75
2023-08-16T12:07:23.681Z,523.12
2023-08-16T12:08:23.460Z,461.25
2023-08-16T12:09:23.404Z,444.38
2023-08-16T12:10:23.370Z,483.75
2023-08-16T12:11:23.366Z,545.62
2023-08-16T12:12:23.356Z,635.62
2023-08-16T12:13:23.352Z,635.62
2023-08-16T12:14:23.318Z,590.62
2023-08-16T12:15:23.348Z,618.75
2023-08-16T12:16:23.323Z,613.12
2023-08-16T12:17:23.496Z,607.50
2023-08-16T12:18:23.302Z,601.88
2023-08-16T12:19:23.382Z,601.88
2023-08-16T12:20:23.241Z,613.12
2023-08-16T12:21:23.230Z,601.88
2023-08-16T12:22:23.228Z,613.12
2023-08-16T12:23:23.230Z,618.75
2023-08-16T12:24:23.199Z,579.38
2023-08-16T12:25:23.199Z,568.12
2023-08-16T12:26:23.171Z,607.50
2023-08-16T12:27:23.375Z,511.88
2023-08-16T12:28:23.139Z,450.00
2023-08-16T12:29:23.138Z,455.62
2023-08-16T12:30:23.157Z,500.62
2023-08-16T12:31:23.115Z,618.75
2023-08-16T12:32:23.133Z,579.38
2023-08-16T12:33:23.098Z,624.38
2023-08-16T12:34:23.065Z,624.38
2023-08-16T12:35:23.055Z,624.38
2023-08-16T12:36:23.041Z,579.38
2023-08-16T12:37:23.273Z,585.00
2023-08-16T12:38:23.008Z,618.75
2023-08-16T12:39:23.011Z,714.38
2023-08-16T12:40:22.990Z,894.38
2023-08-16T12:41:23.008Z,1085.62
2023-08-16T12:42:23.240Z,652.50
2023-08-16T12:43:22.967Z,1310.62
2023-08-16T12:44:22.935Z,1310.62
2023-08-16T12:45:22.982Z,1333.12
2023-08-16T12:46:22.920Z,1428.75
2023-08-16T12:47:23.283Z,1423.12
2023-08-16T12:48:22.986Z,2874.38
2023-08-16T12:49:22.872Z,1411.88
2023-08-16T12:50:22.990Z,1350.00
2023-08-16T12:51:22.872Z,1417.50
2023-08-16T12:52:22.844Z,1400.62
2023-08-16T12:54:22.812Z,1366.88
2023-08-16T12:55:22.799Z,1355.62
2023-08-16T12:56:22.781Z,1395.00
2023-08-16T12:57:25.745Z,1361.25
2023-08-16T12:58:22.751Z,1411.88
2023-08-16T12:59:30.643Z,1423.12
2023-08-16T13:00:25.229Z,1423.12
2023-08-16T13:01:22.755Z,1383.75
2023-08-16T13:02:36.519Z,2874.38
2023-08-16T13:03:32.019Z,2874.38
2023-08-16T13:04:35.347Z,1423.12
2023-08-16T13:05:33.269Z,1389.38
2023-08-16T13:09:26.601Z,2874.38
2023-08-16T13:10:25.024Z,2874.38
2023-08-16T13:11:33.240Z,2874.38
2023-08-16T13:12:32.451Z,2874.38
2023-08-16T13:13:31.573Z,2874.38
2023-08-16T13:17:25.155Z,2874.38
2023-08-16T13:18:23.649Z,1406.25
2023-08-16T13:19:25.694Z,1333.12
2023-08-16T13:20:24.266Z,343.12
2023-08-16T13:21:39.507Z,388.12
2023-08-16T13:22:37.073Z,298.12
2023-08-16T13:23:34.069Z,286.88
2023-08-16T13:24:38.308Z,281.25
2023-08-16T13:26:37.385Z,264.38
2023-08-16T13:27:40.956Z,258.75
2023-08-16T13:29:25.928Z,258.75
2023-08-16T13:30:47.791Z,270.00
2023-08-16T13:35:30.051Z,354.38
2023-08-16T13:36:23.995Z,371.25
2023-08-16T13:37:25.489Z,393.75
2023-08-16T13:38:36.054Z,427.50
2023-08-16T13:40:33.250Z,382.50
2023-08-16T13:41:25.458Z,348.75
2023-08-16T13:42:36.896Z,326.25
2023-08-16T13:43:25.786Z,315.00
2023-08-16T13:45:22.439Z,343.12
2023-08-16T13:46:22.193Z,365.62
2023-08-16T13:47:22.155Z,393.75
2023-08-16T13:48:22.115Z,416.25
2023-08-16T13:49:22.107Z,421.88
2023-08-16T13:50:22.089Z,421.88
2023-08-16T13:51:22.093Z,478.12
2023-08-16T13:52:22.099Z,703.12
2023-08-16T13:53:22.070Z,883.12
2023-08-16T13:54:22.037Z,534.38
2023-08-16T13:55:22.031Z,579.38
2023-08-16T13:56:25.077Z,804.38
2023-08-16T13:57:23.009Z,720.00
2023-08-16T13:58:21.994Z,686.25
2023-08-16T13:59:22.050Z,883.12
2023-08-16T14:00:22.009Z,562.50
2023-08-16T14:01:22.082Z,573.75
2023-08-16T14:02:21.976Z,624.38
2023-08-16T14:03:21.965Z,961.88
2023-08-16T14:04:21.908Z,1085.62
2023-08-16T14:05:21.941Z,1035.00
2023-08-16T14:06:21.900Z,2874.38
2023-08-16T14:07:21.878Z,1035.00
2023-08-16T14:08:21.858Z,1350.00
2023-08-16T14:09:21.858Z,1231.88
2023-08-16T14:10:21.867Z,1293.75
2023-08-16T14:11:21.832Z,967.50
2023-08-16T14:12:21.821Z,1383.75
2023-08-16T14:13:21.814Z,1220.62
2023-08-16T14:14:21.794Z,725.62
2023-08-16T14:15:21.816Z,624.38
2023-08-16T14:16:21.823Z,630.00
2023-08-16T14:17:21.804Z,601.88
2023-08-16T14:18:21.809Z,573.75
2023-08-16T14:19:21.737Z,556.88
2023-08-16T14:20:21.723Z,568.12
2023-08-16T14:21:21.718Z,579.38
2023-08-16T14:22:21.705Z,663.75
2023-08-16T14:23:21.671Z,630.00
2023-08-16T14:24:21.678Z,568.12
2023-08-16T14:25:21.696Z,613.12
2023-08-16T14:26:22.257Z,652.50
2023-08-16T14:27:23.879Z,742.50
2023-08-16T14:28:24.541Z,495.00
2023-08-16T14:29:21.616Z,416.25
2023-08-16T14:30:21.737Z,393.75
2023-08-16T14:31:21.563Z,399.38
2023-08-16T14:32:21.547Z,382.50
2023-08-16T14:33:21.546Z,365.62
2023-08-16T14:34:21.577Z,343.12
2023-08-16T14:35:21.548Z,343.12
2023-08-16T14:36:21.491Z,315.00
2023-08-16T14:37:21.493Z,298.12
2023-08-16T14:38:21.482Z,286.88
2023-08-16T14:39:21.486Z,298.12
2023-08-16T14:40:30.315Z,298.12
2023-08-16T14:41:22.441Z,303.75
2023-08-16T14:42:21.432Z,320.62
2023-08-16T14:43:21.413Z,303.75
2023-08-16T14:44:21.425Z,303.75
2023-08-16T14:45:21.388Z,309.38
2023-08-16T14:46:21.398Z,343.12
2023-08-16T14:47:21.365Z,343.12
2023-08-16T14:48:21.358Z,354.38
2023-08-16T14:49:21.345Z,320.62
2023-08-16T14:50:21.324Z,309.38
2023-08-16T14:51:21.320Z,315.00
2023-08-16T14:52:21.296Z,365.62
2023-08-16T14:53:21.293Z,523.12
2023-08-16T14:54:21.298Z,556.88
2023-08-16T14:55:21.257Z,461.25
2023-08-16T14:56:21.281Z,388.12
2023-08-16T14:57:21.238Z,309.38
2023-08-16T14:58:21.246Z,309.38
2023-08-16T14:59:21.203Z,320.62
2023-08-16T15:00:21.198Z,337.50
2023-08-16T15:01:21.232Z,393.75
2023-08-16T15:02:21.173Z,556.88
2023-08-16T15:03:21.261Z,427.50
2023-08-16T15:04:21.143Z,680.62
2023-08-16T15:05:21.135Z,495.00
2023-08-16T15:06:21.109Z,658.12
2023-08-16T15:07:21.116Z,703.12
2023-08-16T15:08:21.088Z,821.25
2023-08-16T15:09:21.077Z,945.00
2023-08-16T15:10:21.078Z,855.00
2023-08-16T15:11:21.054Z,798.75
2023-08-16T15:12:21.061Z,1006.88
2023-08-16T15:13:21.030Z,1023.75
2023-08-16T15:14:21.007Z,1175.62
2023-08-16T15:15:21.007Z,1209.38
2023-08-16T15:16:21.029Z,1209.38
2023-08-16T15:17:20.990Z,1192.50
2023-08-16T15:18:20.958Z,1237.50
2023-08-16T15:19:20.962Z,1046.25
2023-08-16T15:20:20.929Z,1046.25
2023-08-16T15:21:20.938Z,753.75
2023-08-16T15:22:20.981Z,680.62
2023-08-16T15:23:20.902Z,905.62
2023-08-16T15:24:20.875Z,686.25
2023-08-16T15:25:20.926Z,787.50
2023-08-16T15:26:20.889Z,916.88
2023-08-16T15:27:22.225Z,933.75
2023-08-16T15:28:20.894Z,1001.25
2023-08-16T15:29:20.966Z,1051.88
2023-08-16T15:30:21.054Z,675.00
2023-08-16T15:31:20.949Z,708.75
2023-08-16T15:32:20.794Z,680.62
2023-08-16T15:33:20.765Z,405.00
2023-08-16T15:34:20.744Z,360.00
2023-08-16T15:35:20.757Z,315.00
2023-08-16T15:36:20.719Z,286.88
2023-08-16T15:37:20.715Z,258.75
2023-08-16T15:38:20.702Z,230.62
2023-08-16T15:39:20.688Z,202.50
2023-08-16T15:40:20.680Z,191.25
2023-08-16T15:41:20.681Z,180.00
2023-08-16T15:42:20.651Z,180.00
2023-08-16T15:43:20.638Z,185.62
2023-08-16T15:44:20.632Z,191.25
2023-08-16T15:45:20.623Z,202.50
2023-08-16T15:46:20.621Z,219.38
2023-08-16T15:47:20.608Z,247.50
2023-08-16T15:48:20.569Z,275.62
2023-08-16T15:49:20.576Z,309.38
2023-08-16T15:50:20.540Z,399.38
2023-08-16T15:51:20.529Z,444.38
2023-08-16T15:52:20.522Z,579.38
2023-08-16T15:53:20.507Z,658.12
2023-08-16T15:54:20.501Z,618.75
2023-08-16T15:55:20.479Z,624.38
2023-08-16T15:56:20.486Z,618.75
2023-08-16T15:57:20.453Z,545.62
2023-08-16T15:58:20.451Z,455.62
2023-08-16T15:59:20.895Z,483.75
2023-08-16T16:00:20.417Z,680.62
2023-08-16T16:01:20.452Z,483.75
2023-08-16T16:02:20.448Z,877.50
2023-08-16T16:03:20.417Z,928.12
2023-08-16T16:04:20.384Z,905.62
2023-08-16T16:05:20.356Z,866.25
2023-08-16T16:06:20.379Z,916.88
2023-08-16T16:07:20.338Z,871.88
2023-08-16T16:08:20.330Z,894.38
2023-08-16T16:09:20.304Z,922.50
2023-08-16T16:10:20.279Z,967.50
2023-08-16T16:11:20.277Z,967.50
2023-08-16T16:12:20.268Z,956.25
2023-08-16T16:13:20.253Z,916.88
2023-08-16T16:14:20.230Z,922.50
2023-08-16T16:15:20.225Z,933.75
2023-08-16T16:16:20.327Z,939.38
2023-08-16T16:17:20.214Z,928.12
2023-08-16T16:18:20.181Z,961.88
2023-08-16T16:19:20.168Z,956.25
2023-08-16T16:20:20.172Z,956.25
2023-08-16T16:21:20.141Z,956.25
2023-08-16T16:22:20.148Z,894.38
2023-08-16T16:23:21.279Z,843.75
2023-08-16T16:24:20.103Z,787.50
2023-08-16T16:25:20.090Z,765.00
2023-08-16T16:26:20.088Z,641.25
2023-08-16T16:27:20.084Z,466.88
2023-08-16T16:28:20.062Z,343.12
2023-08-16T16:29:27.094Z,354.38
2023-08-16T16:30:20.062Z,326.25
2023-08-16T16:31:20.082Z,337.50
2023-08-16T16:32:20.160Z,303.75
2023-08-16T16:33:19.998Z,315.00
2023-08-16T16:34:20.070Z,292.50
2023-08-16T16:35:19.963Z,264.38
2023-08-16T16:36:19.974Z,343.12
2023-08-16T16:37:19.959Z,320.62
2023-08-16T16:38:19.940Z,315.00
2023-08-16T16:39:19.937Z,315.00
2023-08-16T16:40:19.920Z,236.25
2023-08-16T16:41:19.899Z,191.25
2023-08-16T16:42:19.888Z,157.50
2023-08-16T16:43:19.879Z,151.88
2023-08-16T16:44:19.859Z,140.62
2023-08-16T16:45:22.051Z,123.75
2023-08-16T16:46:19.853Z,129.38
2023-08-16T16:47:19.806Z,135.00
2023-08-16T16:48:19.806Z,135.00
2023-08-16T16:49:19.783Z,146.25
2023-08-16T16:50:19.789Z,135.00
2023-08-16T16:51:19.759Z,112.50
2023-08-16T16:52:19.755Z,101.25
2023-08-16T16:53:19.729Z,84.38
2023-08-16T16:54:19.723Z,84.38
2023-08-16T16:55:19.720Z,78.75
2023-08-16T16:56:19.697Z,84.38
2023-08-16T16:57:19.711Z,90.00
2023-08-16T16:58:19.677Z,90.00
2023-08-16T16:59:19.691Z,106.88
2023-08-16T17:00:19.663Z,140.62
2023-08-16T17:01:19.673Z,151.88
2023-08-16T17:02:19.615Z,174.38
2023-08-16T17:03:19.664Z,168.75
2023-08-16T17:04:19.780Z,185.62
2023-08-16T17:05:19.585Z,168.75
2023-08-16T17:06:19.563Z,168.75
2023-08-16T17:07:19.547Z,157.50
2023-08-16T17:08:19.546Z,191.25
2023-08-16T17:09:19.546Z,163.12
2023-08-16T17:10:19.503Z,157.50
2023-08-16T17:11:19.498Z,180.00
2023-08-16T17:12:19.481Z,191.25
2023-08-16T17:13:19.492Z,213.75
2023-08-16T17:14:19.465Z,196.88
2023-08-16T17:15:19.446Z,174.38
2023-08-16T17:16:19.428Z,151.88
2023-08-16T17:17:19.438Z,140.62